Time;durP1;ratioP1;P1;durP2;ratioP2;P2;SDS_P1;SDS_P2;PMS_P1;PMS_P2;Temp;Humidity;BMP_temperature;BMP_pressure;BME280_temperature;BME280_humidity;BME280_pressure;Samples;Min_cycle;Max_cycle;Signal;HPM_P1;HPM_P2
2023/12/16 00:00:01;;;;;;;1.13;0.68;;;22.50;41.30;;;;;;5113331;27;20024;-37
2023/12/16 00:02:27;;;;;;;;;;;22.50;41.20;;;;;;5123287;27;20042;-37
2023/12/16 00:04:53;;;;;;;1.50;0.65;;;22.50;41.30;;;;;;5120499;27;19915;-37
2023/12/16 00:07:19;;;;;;;2.00;0.90;;;22.50;41.30;;;;;;5116442;28;20024;-37
2023/12/16 00:09:45;;;;;;;2.15;0.73;;;22.50;41.30;;;;;;5115277;28;20532;-37
2023/12/16 00:12:11;;;;;;;1.00;0.70;;;22.50;41.30;;;;;;5120668;27;20063;-37
2023/12/16 00:14:38;;;;;;;2.58;0.65;;;22.50;41.30;;;;;;5115028;28;20084;-37
2023/12/16 00:17:04;;;;;;;1.33;0.68;;;22.50;41.30;;;;;;5117465;27;20036;-37
2023/12/16 00:19:30;;;;;;;0.80;0.70;;;22.50;41.40;;;;;;5113207;28;20045;-37
2023/12/16 00:21:56;;;;;;;2.08;0.50;;;22.50;41.30;;;;;;5115385;28;20024;-36
2023/12/16 00:24:23;;;;;;;0.70;0.55;;;22.50;41.30;;;;;;5117537;28;20035;-36
2023/12/16 00:26:49;;;;;;;0.80;0.52;;;22.50;41.30;;;;;;5112118;28;20065;-36
2023/12/16 00:29:15;;;;;;;0.90;0.60;;;22.60;41.30;;;;;;5111331;28;20087;-36
2023/12/16 00:31:43;;;;;;;0.95;0.55;;;22.60;41.30;;;;;;5113474;28;20099;-36
2023/12/16 00:34:10;;;;;;;0.75;0.73;;;22.60;41.20;;;;;;5110828;27;20031;-36
2023/12/16 00:36:36;;;;;;;1.02;0.63;;;22.60;41.20;;;;;;5116461;28;20035;-35
2023/12/16 00:39:03;;;;;;;0.88;0.60;;;22.60;41.20;;;;;;5097721;28;20036;-36
2023/12/16 00:41:29;;;;;;;1.30;0.80;;;22.60;41.20;;;;;;5109009;28;20508;-37
2023/12/16 00:43:55;;;;;;;0.50;0.43;;;22.60;41.20;;;;;;5113688;27;20024;-36
2023/12/16 00:46:22;;;;;;;0.83;0.50;;;22.60;41.30;;;;;;5113239;28;20350;-36
2023/12/16 00:48:48;;;;;;;0.75;0.50;;;22.60;41.20;;;;;;5112967;28;20291;-36
2023/12/16 00:51:14;;;;;;;1.23;0.75;;;22.60;41.20;;;;;;5124465;27;20044;-36
2023/12/16 00:53:40;;;;;;;0.90;0.70;;;22.60;41.30;;;;;;5109373;28;20032;-36
2023/12/16 00:56:08;;;;;;;1.15;0.52;;;22.60;41.30;;;;;;5113538;28;20505;-36
2023/12/16 00:58:34;;;;;;;1.10;0.50;;;22.60;41.30;;;;;;5121120;27;20115;-36
2023/12/16 01:01:00;;;;;;;0.55;0.45;;;22.60;41.40;;;;;;5114083;28;20107;-36
2023/12/16 01:03:26;;;;;;;1.88;0.50;;;22.60;41.50;;;;;;5087963;28;20541;-36
2023/12/16 01:05:52;;;;;;;0.77;0.65;;;22.60;41.50;;;;;;5110356;27;20031;-36
2023/12/16 01:08:19;;;;;;;1.30;0.40;;;22.60;41.50;;;;;;5113378;27;20030;-35
2023/12/16 01:10:45;;;;;;;0.73;0.53;;;22.60;41.50;;;;;;5113841;28;20098;-35
2023/12/16 01:13:12;;;;;;;0.98;0.68;;;22.60;41.50;;;;;;5116166;28;20031;-38
2023/12/16 01:15:38;;;;;;;0.77;0.52;;;22.60;41.50;;;;;;5117288;28;20042;-37
2023/12/16 01:18:04;;;;;;;1.52;0.60;;;22.60;41.60;;;;;;5107462;28;20024;-37
2023/12/16 01:20:30;;;;;;;0.88;0.60;;;22.60;41.60;;;;;;5115983;28;20020;-38
2023/12/16 01:22:57;;;;;;;2.05;0.50;;;22.60;41.50;;;;;;5113939;28;20054;-39
2023/12/16 01:25:23;;;;;;;1.25;0.40;;;22.60;41.40;;;;;;5096823;28;20089;-41
2023/12/16 01:27:49;;;;;;;4.05;0.70;;;22.70;41.30;;;;;;5112066;28;20024;-40
2023/12/16 01:30:15;;;;;;;0.70;0.60;;;22.60;41.80;;;;;;5113272;27;20031;-40
2023/12/16 01:32:41;;;;;;;5.47;0.85;;;22.50;41.80;;;;;;5114112;28;20568;-40
2023/12/16 01:35:08;;;;;;;2.22;0.45;;;22.50;41.50;;;;;;5114134;28;20028;-40
2023/12/16 01:37:34;;;;;;;2.15;0.73;;;22.40;41.60;;;;;;5118860;28;20109;-40
2023/12/16 01:40:00;;;;;;;3.47;0.68;;;22.30;41.60;;;;;;5110848;28;20107;-40
2023/12/16 01:42:26;;;;;;;1.40;0.60;;;22.20;41.50;;;;;;5114048;27;20104;-40
2023/12/16 01:44:52;;;;;;;0.63;0.50;;;22.10;41.60;;;;;;5114233;28;20038;-40
2023/12/16 01:47:20;;;;;;;2.00;0.60;;;22.00;41.50;;;;;;5111880;28;20105;-40
2023/12/16 01:49:47;;;;;;;2.25;0.60;;;22.00;41.60;;;;;;5097543;28;20048;-40
2023/12/16 01:52:13;;;;;;;1.70;0.65;;;21.90;41.60;;;;;;5101851;28;20055;-40
2023/12/16 01:54:40;;;;;;;2.72;0.60;;;21.90;41.70;;;;;;5113224;28;20120;-40
2023/12/16 01:57:06;;;;;;;3.35;0.60;;;21.80;41.60;;;;;;5092565;28;20027;-40
2023/12/16 01:59:32;;;;;;;2.40;0.70;;;21.70;41.70;;;;;;5115619;28;20075;-40
2023/12/16 02:01:58;;;;;;;1.20;0.70;;;21.70;41.90;;;;;;5094733;28;20020;-40
2023/12/16 02:04:26;;;;;;;0.80;0.52;;;21.70;41.60;;;;;;5112797;28;20063;-39
2023/12/16 02:06:52;;;;;;;0.90;0.50;;;21.80;41.50;;;;;;5111318;28;20026;-41
2023/12/16 02:09:19;;;;;;;1.90;0.60;;;21.90;41.40;;;;;;5109403;28;20067;-40
2023/12/16 02:11:45;;;;;;;1.52;0.60;;;22.00;41.40;;;;;;5111098;28;20948;-40
2023/12/16 02:14:12;;;;;;;0.90;0.55;;;22.10;41.40;;;;;;5112996;27;20492;-40
2023/12/16 02:16:38;;;;;;;1.48;0.60;;;22.10;41.40;;;;;;5110153;28;20063;-41
2023/12/16 02:19:10;;;;;;;1.33;0.60;;;22.20;41.40;;;;;;5107283;28;20076;-41
2023/12/16 02:21:36;;;;;;;1.10;0.60;;;22.20;41.40;;;;;;5110706;28;20020;-41
2023/12/16 02:24:02;;;;;;;1.45;0.70;;;22.30;41.50;;;;;;5106388;28;20024;-41
2023/12/16 02:26:28;;;;;;;1.77;0.70;;;22.30;41.50;;;;;;5111579;28;20076;-42
2023/12/16 02:28:54;;;;;;;1.33;0.70;;;22.40;42.00;;;;;;5107842;28;20119;-45
2023/12/16 02:31:21;;;;;;;1.90;0.50;;;22.50;41.50;;;;;;5110461;28;20035;-41
2023/12/16 02:33:47;;;;;;;1.05;0.60;;;22.50;41.40;;;;;;5113586;28;20110;-41
2023/12/16 02:36:13;;;;;;;0.85;0.65;;;22.50;41.40;;;;;;5111094;27;20035;-41
2023/12/16 02:38:39;;;;;;;0.68;0.68;;;22.60;41.50;;;;;;5109994;28;20015;-40
2023/12/16 02:41:05;;;;;;;0.80;0.60;;;22.60;41.40;;;;;;5113321;28;20123;-40
2023/12/16 02:43:32;;;;;;;1.15;0.73;;;22.70;41.50;;;;;;5106453;28;20040;-41
2023/12/16 02:45:58;;;;;;;0.80;0.68;;;22.70;41.40;;;;;;5111236;28;20032;-41
2023/12/16 02:48:24;;;;;;;1.92;1.00;;;22.70;41.40;;;;;;5109016;27;20190;-42
2023/12/16 02:50:50;;;;;;;1.15;0.70;;;22.80;41.40;;;;;;5114553;28;20050;-40
2023/12/16 02:53:16;;;;;;;1.33;0.60;;;22.80;41.40;;;;;;5111059;28;20023;-41
2023/12/16 02:55:44;;;;;;;2.20;0.70;;;22.90;41.40;;;;;;5113605;27;20727;-40
2023/12/16 02:58:10;;;;;;;1.15;0.80;;;22.90;41.40;;;;;;5115314;28;20023;-39
2023/12/16 03:00:36;;;;;;;1.20;0.90;;;22.90;41.60;;;;;;5113694;28;20023;-39
2023/12/16 03:03:03;;;;;;;1.45;1.00;;;22.80;41.90;;;;;;5116172;27;20024;-40
2023/12/16 03:05:29;;;;;;;1.47;1.10;;;22.70;42.00;;;;;;5106987;28;20035;-42
2023/12/16 03:07:55;;;;;;;1.20;0.90;;;22.70;42.10;;;;;;5108787;28;20101;-40
2023/12/16 03:10:21;;;;;;;1.40;0.90;;;22.60;42.10;;;;;;5105744;28;20031;-40
2023/12/16 03:12:47;;;;;;;1.38;1.08;;;22.50;42.10;;;;;;5104349;28;20035;-40
2023/12/16 03:15:14;;;;;;;1.25;1.00;;;22.50;42.20;;;;;;5105302;28;20077;-40
2023/12/16 03:17:40;;;;;;;1.42;1.15;;;22.40;42.20;;;;;;5108444;28;20032;-45
2023/12/16 03:20:08;;;;;;;1.25;1.00;;;22.30;42.30;;;;;;5116282;28;20039;-40
2023/12/16 03:22:34;;;;;;;2.38;1.38;;;22.20;42.30;;;;;;5109452;28;20040;-40
2023/12/16 03:25:00;;;;;;;1.92;1.38;;;22.10;42.30;;;;;;5108673;28;20031;-40
2023/12/16 03:27:26;;;;;;;2.05;1.13;;;22.00;42.30;;;;;;5107517;28;20032;-40
2023/12/16 03:29:53;;;;;;;2.08;1.42;;;21.90;42.30;;;;;;5107358;28;20042;-40
2023/12/16 03:32:19;;;;;;;1.23;1.13;;;21.90;42.40;;;;;;5106552;28;20055;-41
2023/12/16 03:34:45;;;;;;;1.35;0.90;;;21.80;42.30;;;;;;5115329;28;20687;-40
2023/12/16 03:37:12;;;;;;;1.63;1.10;;;21.90;42.00;;;;;;5112798;28;20513;-40
2023/12/16 03:39:41;;;;;;;2.63;1.35;;;22.00;41.80;;;;;;5113118;28;20543;-40
2023/12/16 03:42:07;;;;;;;1.73;1.20;;;22.10;41.70;;;;;;5110048;28;20039;-39
2023/12/16 03:44:34;;;;;;;2.38;1.10;;;22.10;41.70;;;;;;5115228;28;20032;-39
2023/12/16 03:47:00;;;;;;;2.20;1.10;;;22.20;41.70;;;;;;5106506;28;20043;-40
2023/12/16 03:49:28;;;;;;;1.67;1.33;;;22.20;41.60;;;;;;5112885;28;20035;-40
2023/12/16 03:51:56;;;;;;;1.33;1.17;;;22.20;41.60;;;;;;5110081;28;20829;-40
2023/12/16 03:54:22;;;;;;;1.63;1.23;;;22.30;41.70;;;;;;5114458;28;20495;-40
2023/12/16 03:56:48;;;;;;;1.60;1.10;;;22.30;41.60;;;;;;5114487;28;20036;-40
2023/12/16 03:59:14;;;;;;;1.92;1.15;;;22.40;41.60;;;;;;5110229;28;20518;-39
2023/12/16 04:01:44;;;;;;;1.15;1.02;;;22.40;41.70;;;;;;5123066;28;20028;-40
2023/12/16 04:04:10;;;;;;;1.75;1.30;;;22.40;41.70;;;;;;5122377;28;20042;-41
2023/12/16 04:06:36;;;;;;;1.40;1.27;;;22.50;41.70;;;;;;5121931;28;20059;-41
2023/12/16 04:09:03;;;;;;;2.13;1.30;;;22.50;41.60;;;;;;5117936;28;20054;-40
2023/12/16 04:11:29;;;;;;;1.83;1.23;;;22.50;41.70;;;;;;5117198;28;20046;-40
2023/12/16 04:13:55;;;;;;;2.05;1.33;;;22.60;41.70;;;;;;5115781;28;20079;-40
2023/12/16 04:16:21;;;;;;;2.03;1.50;;;22.60;41.80;;;;;;5111028;28;20035;-42
2023/12/16 04:18:47;;;;;;;1.75;1.35;;;22.60;42.00;;;;;;5107567;28;20031;-40
2023/12/16 04:21:14;;;;;;;2.00;1.35;;;22.70;42.20;;;;;;5105647;28;20032;-40
2023/12/16 04:23:40;;;;;;;1.20;1.10;;;22.70;42.20;;;;;;5108080;28;20435;-41
2023/12/16 04:26:06;;;;;;;2.10;1.60;;;22.80;42.20;;;;;;5109594;28;20032;-40
2023/12/16 04:28:32;;;;;;;1.60;1.23;;;22.80;42.30;;;;;;5113851;28;20089;-41
2023/12/16 04:30:58;;;;;;;2.05;1.40;;;22.80;42.30;;;;;;5113659;28;20061;-40
2023/12/16 04:33:25;;;;;;;1.83;1.50;;;22.90;42.40;;;;;;5109639;28;20046;-47
2023/12/16 04:35:51;;;;;;;1.77;1.35;;;22.90;42.30;;;;;;5105780;28;20031;-40
2023/12/16 04:38:17;;;;;;;1.85;1.60;;;22.90;42.30;;;;;;5115432;28;20100;-40
2023/12/16 04:40:43;;;;;;;2.00;1.55;;;23.00;42.40;;;;;;5115408;27;20042;-39
2023/12/16 04:43:09;;;;;;;2.63;1.70;;;23.10;42.50;;;;;;5117942;27;20053;-40
2023/12/16 04:45:36;;;;;;;1.77;1.55;;;23.10;42.50;;;;;;5125253;27;20035;-40
2023/12/16 04:48:02;;;;;;;3.70;3.27;;;23.10;42.60;;;;;;5112176;28;20051;-38
2023/12/16 04:50:28;;;;;;;5.13;3.90;;;23.10;41.90;;;;;;5113330;28;20130;-38
2023/12/16 04:52:54;;;;;;;4.28;3.47;;;22.90;41.10;;;;;;5114041;28;20485;-41
2023/12/16 04:55:20;;;;;;;5.68;2.70;;;22.70;41.50;;;;;;5113525;28;20024;-41
2023/12/16 04:57:46;;;;;;;4.18;3.22;;;22.70;42.00;;;;;;5117482;28;20030;-41
2023/12/16 05:00:13;;;;;;;5.20;3.10;;;22.60;42.00;;;;;;5122328;27;20042;-41
2023/12/16 05:02:39;;;;;;;3.60;2.72;;;22.50;42.20;;;;;;5124920;27;20044;-41
2023/12/16 05:05:06;;;;;;;3.55;3.20;;;22.40;42.30;;;;;;5116903;28;20124;-41
2023/12/16 05:07:32;;;;;;;5.05;2.72;;;22.30;42.40;;;;;;5122889;28;20027;-41
2023/12/16 05:09:58;;;;;;;4.13;3.00;;;22.20;42.40;;;;;;5117054;28;20035;-41
2023/12/16 05:12:24;;;;;;;4.85;2.70;;;22.20;42.50;;;;;;5111387;28;20035;-41
2023/12/16 05:14:50;;;;;;;4.78;2.88;;;22.10;42.50;;;;;;5114990;28;20027;-40
2023/12/16 05:17:16;;;;;;;4.78;2.80;;;22.00;42.40;;;;;;5123630;28;20119;-40
2023/12/16 05:19:42;;;;;;;3.65;2.90;;;21.90;42.60;;;;;;5122888;27;20019;-40
2023/12/16 05:22:09;;;;;;;4.22;3.05;;;21.80;42.70;;;;;;5118702;27;20039;-40
2023/12/16 05:24:35;;;;;;;4.28;2.90;;;21.70;42.80;;;;;;5114007;28;20111;-39
2023/12/16 05:27:01;;;;;;;3.22;2.42;;;21.80;42.50;;;;;;5119258;28;20104;-40
2023/12/16 05:29:27;;;;;;;3.42;2.85;;;21.80;42.40;;;;;;5118608;27;20024;-41
2023/12/16 05:31:53;;;;;;;3.00;2.45;;;21.90;42.20;;;;;;5109556;28;20342;-41
2023/12/16 05:34:19;;;;;;;3.33;2.67;;;22.00;42.20;;;;;;5111140;28;20053;-40
2023/12/16 05:36:47;;;;;;;4.03;2.58;;;22.00;42.20;;;;;;5114200;27;20031;-40
2023/12/16 05:39:13;;;;;;;3.72;2.20;;;22.10;42.30;;;;;;5107840;28;20609;-40
2023/12/16 05:41:39;;;;;;;2.45;2.25;;;22.10;42.50;;;;;;5111659;28;20032;-41
2023/12/16 05:44:05;;;;;;;2.28;2.08;;;22.20;42.70;;;;;;5117388;27;20033;-40
2023/12/16 05:46:31;;;;;;;3.33;2.30;;;22.20;42.70;;;;;;5112390;28;20024;-41
2023/12/16 05:48:58;;;;;;;3.17;2.60;;;22.20;42.70;;;;;;5108842;27;20057;-40
2023/12/16 05:51:24;;;;;;;2.47;2.17;;;22.30;42.60;;;;;;5113799;27;20053;-40
2023/12/16 05:53:50;;;;;;;2.95;2.33;;;22.30;42.60;;;;;;5106791;27;20039;-40
2023/12/16 05:56:16;;;;;;;2.97;2.33;;;22.30;42.60;;;;;;5105580;28;20766;-41
2023/12/16 05:58:42;;;;;;;2.63;2.00;;;22.40;42.60;;;;;;5106151;28;20026;-40
2023/12/16 06:01:09;;;;;;;3.40;2.08;;;22.40;42.60;;;;;;5120459;27;20087;-39
2023/12/16 06:03:35;;;;;;;2.90;2.28;;;22.40;42.60;;;;;;5115610;28;20031;-39
2023/12/16 06:06:01;;;;;;;3.25;2.38;;;22.50;42.60;;;;;;5115347;28;20103;-40
2023/12/16 06:08:27;;;;;;;2.20;2.00;;;22.50;42.60;;;;;;5115298;28;20027;-39
2023/12/16 06:10:53;;;;;;;2.20;1.80;;;22.50;42.60;;;;;;5114837;27;20261;-40
2023/12/16 06:13:19;;;;;;;2.60;1.95;;;22.60;42.50;;;;;;5114515;28;20030;-41
2023/12/16 06:15:45;;;;;;;2.30;1.80;;;22.60;42.50;;;;;;5105806;28;20472;-40
2023/12/16 06:18:12;;;;;;;2.80;1.90;;;22.60;42.50;;;;;;5109553;28;20036;-40
2023/12/16 06:20:38;;;;;;;2.42;1.95;;;22.70;42.40;;;;;;5104338;28;20054;-40
2023/12/16 06:23:04;;;;;;;2.40;2.20;;;22.70;42.40;;;;;;5116957;28;20482;-40
2023/12/16 06:25:30;;;;;;;4.70;2.45;;;22.70;42.40;;;;;;5104037;28;20028;-40
2023/12/16 06:27:56;;;;;;;2.60;1.90;;;22.70;42.40;;;;;;5120718;27;20122;-40
2023/12/16 06:30:23;;;;;;;5.70;2.15;;;22.80;42.40;;;;;;5121503;28;20076;-40
2023/12/16 06:32:49;;;;;;;4.10;2.00;;;22.80;42.30;;;;;;5110017;28;20095;-40
2023/12/16 06:35:15;;;;;;;2.95;2.10;;;22.80;42.20;;;;;;5113116;28;20028;-40
2023/12/16 06:37:41;;;;;;;2.13;1.77;;;22.90;42.20;;;;;;5109010;28;22173;-40
2023/12/16 06:40:08;;;;;;;2.40;1.80;;;22.90;42.10;;;;;;5110686;28;20031;-40
2023/12/16 06:42:34;;;;;;;2.47;2.10;;;22.90;42.10;;;;;;5107668;28;20734;-41
2023/12/16 06:45:00;;;;;;;3.28;2.10;;;22.90;42.10;;;;;;5110978;28;20024;-40
2023/12/16 06:47:26;;;;;;;2.53;1.90;;;23.00;42.10;;;;;;5106637;28;20055;-39
2023/12/16 06:49:53;;;;;;;2.92;1.90;;;23.00;42.30;;;;;;5112775;28;20027;-40
2023/12/16 06:52:19;;;;;;;2.83;2.22;;;23.10;42.30;;;;;;5110859;28;20043;-40
2023/12/16 06:54:45;;;;;;;2.35;1.70;;;23.10;42.40;;;;;;5115599;28;20061;-40
2023/12/16 06:57:11;;;;;;;5.07;1.88;;;23.10;42.40;;;;;;5112030;28;20123;-40
2023/12/16 06:59:37;;;;;;;2.83;1.95;;;23.20;42.40;;;;;;5107539;28;20039;-40
2023/12/16 07:02:03;;;;;;;2.58;1.80;;;23.10;42.30;;;;;;5108694;27;20038;-40
2023/12/16 07:04:30;;;;;;;2.35;1.80;;;23.10;42.30;;;;;;5114972;28;20023;-40
2023/12/16 07:06:56;;;;;;;2.17;1.67;;;23.20;42.30;;;;;;5110143;28;20108;-40
2023/12/16 07:09:22;;;;;;;3.05;2.00;;;23.20;42.20;;;;;;5110563;28;20024;-40
2023/12/16 07:11:48;;;;;;;3.05;1.90;;;23.20;42.30;;;;;;5107939;28;20039;-40
2023/12/16 07:14:14;;;;;;;2.25;1.80;;;23.20;42.30;;;;;;5111181;28;20077;-40
2023/12/16 07:16:40;;;;;;;3.42;2.08;;;23.20;42.30;;;;;;5112693;28;20040;-41
2023/12/16 07:19:06;;;;;;;2.72;2.03;;;23.30;43.10;;;;;;5113891;28;20533;-41
2023/12/16 07:21:32;;;;;;;3.60;2.20;;;23.30;42.50;;;;;;5115917;28;20085;-41
2023/12/16 07:23:58;;;;;;;3.33;2.08;;;23.40;43.20;;;;;;5105458;28;20023;-41
2023/12/16 07:26:25;;;;;;;2.95;2.15;;;23.30;42.50;;;;;;5113309;28;20032;-41
2023/12/16 07:28:51;;;;;;;2.40;1.80;;;23.40;42.70;;;;;;5111170;28;20035;-41
2023/12/16 07:31:17;;;;;;;2.80;1.80;;;23.40;42.70;;;;;;5106874;28;20064;-41
2023/12/16 07:33:43;;;;;;;2.63;2.05;;;23.40;42.80;;;;;;5110765;28;20023;-40
2023/12/16 07:36:09;;;;;;;2.35;1.80;;;23.40;42.70;;;;;;5111833;28;20020;-41
2023/12/16 07:38:35;;;;;;;2.60;1.77;;;23.40;42.80;;;;;;5110920;28;20057;-40
2023/12/16 07:41:02;;;;;;;2.47;2.05;;;23.50;42.80;;;;;;5110190;28;20023;-40
2023/12/16 07:43:28;;;;;;;2.67;1.95;;;23.50;42.80;;;;;;5110761;28;20020;-41
2023/12/16 07:45:54;;;;;;;1.88;1.50;;;23.50;42.80;;;;;;5111594;28;20031;-40
2023/12/16 07:48:20;;;;;;;2.20;1.80;;;23.50;42.80;;;;;;5115893;28;20076;-40
2023/12/16 07:50:46;;;;;;;2.50;1.75;;;23.50;42.90;;;;;;5105015;28;20050;-40
2023/12/16 07:53:13;;;;;;;2.28;1.95;;;23.60;42.80;;;;;;5108471;28;20035;-41
2023/12/16 07:55:39;;;;;;;2.33;1.73;;;23.50;42.90;;;;;;5112446;28;20023;-41
2023/12/16 07:58:05;;;;;;;2.33;1.92;;;23.50;43.10;;;;;;5108241;28;20061;-41
2023/12/16 08:00:31;;;;;;;2.65;1.80;;;23.40;43.20;;;;;;5102579;28;20087;-42
2023/12/16 08:02:57;;;;;;;2.83;2.47;;;23.30;43.40;;;;;;5104400;28;20031;-40
2023/12/16 08:05:24;;;;;;;2.60;2.10;;;23.20;43.60;;;;;;5111639;28;20039;-41
2023/12/16 08:07:50;;;;;;;4.05;2.40;;;23.00;43.70;;;;;;5113461;28;20034;-40
2023/12/16 08:10:16;;;;;;;3.22;2.20;;;22.90;43.70;;;;;;5125874;28;20038;-40
2023/12/16 08:12:42;;;;;;;2.30;2.10;;;22.80;43.90;;;;;;5113981;28;20043;-40
2023/12/16 08:15:09;;;;;;;2.70;2.20;;;22.70;43.80;;;;;;5123132;28;20030;-40
2023/12/16 08:17:37;;;;;;;4.30;2.10;;;22.60;43.90;;;;;;5115647;27;20104;-40
2023/12/16 08:20:05;;;;;;;3.55;2.25;;;22.50;43.90;;;;;;5126397;27;20050;-39
2023/12/16 08:22:32;;;;;;;2.67;2.15;;;22.40;43.90;;;;;;5119782;28;20032;-39
2023/12/16 08:24:58;;;;;;;;;;;22.30;44.00;;;;;;5121850;28;20031;-40
2023/12/16 08:27:24;;;;;;;3.55;2.33;;;22.20;44.00;;;;;;5105075;28;19908;-40
2023/12/16 08:29:51;;;;;;;3.72;2.38;;;22.10;44.10;;;;;;5105882;28;20057;-40
2023/12/16 08:32:17;;;;;;;2.90;2.13;;;22.10;43.70;;;;;;5118498;28;20064;-40
2023/12/16 08:34:43;;;;;;;2.55;2.20;;;22.20;43.40;;;;;;5114500;28;20024;-41
2023/12/16 08:37:09;;;;;;;2.25;2.03;;;22.30;43.30;;;;;;5103550;28;20024;-41
2023/12/16 08:39:35;;;;;;;2.63;1.85;;;22.30;43.20;;;;;;5117864;28;20028;-41
2023/12/16 08:42:01;;;;;;;2.78;1.98;;;22.30;43.20;;;;;;5107363;28;20032;-41
2023/12/16 08:44:27;;;;;;;3.05;2.40;;;22.40;43.00;;;;;;5110305;28;20032;-42
2023/12/16 08:46:53;;;;;;;2.92;2.00;;;22.50;43.00;;;;;;5106173;28;20035;-42
2023/12/16 08:49:20;;;;;;;1.90;1.60;;;22.50;42.90;;;;;;5111120;28;20040;-41
2023/12/16 08:51:47;;;;;;;2.40;1.98;;;22.50;42.90;;;;;;5125638;27;20119;-41
2023/12/16 08:54:14;;;;;;;2.45;2.20;;;22.50;42.90;;;;;;5097634;28;20040;-40
2023/12/16 08:56:40;;;;;;;3.65;1.90;;;22.60;42.90;;;;;;5109631;27;20031;-41
2023/12/16 08:59:06;;;;;;;4.15;2.17;;;22.60;42.80;;;;;;5110232;28;20055;-41
2023/12/16 09:01:32;;;;;;;2.85;2.25;;;22.70;42.80;;;;;;5110228;27;20035;-40
2023/12/16 09:03:58;;;;;;;2.30;1.67;;;22.70;42.80;;;;;;5116609;27;20042;-38
2023/12/16 09:06:25;;;;;;;5.53;5.03;;;22.70;42.70;;;;;;5112777;28;20468;-38
2023/12/16 09:08:51;;;;;;;5.75;5.25;;;22.70;41.90;;;;;;5113948;28;20039;-38
2023/12/16 09:11:17;;;;;;;6.20;5.60;;;22.60;41.50;;;;;;5108919;28;20043;-38
2023/12/16 09:13:44;;;;;;;5.88;5.38;;;22.60;41.40;;;;;;5107464;28;20020;-38
2023/12/16 09:16:10;;;;;;;6.00;5.50;;;22.50;41.30;;;;;;5113024;28;20061;-36
2023/12/16 09:18:37;;;;;;;5.65;4.30;;;22.50;41.10;;;;;;5110515;28;20028;-36
2023/12/16 09:21:03;;;;;;;6.50;5.50;;;22.50;41.20;;;;;;5092787;28;20114;-36
2023/12/16 09:23:29;;;;;;;6.60;6.00;;;22.40;41.10;;;;;;5116276;28;20036;-36
2023/12/16 09:25:55;;;;;;;6.97;6.18;;;22.40;41.10;;;;;;5113227;28;20024;-36
2023/12/16 09:28:21;;;;;;;8.35;5.47;;;22.40;41.10;;;;;;5110813;28;20024;-38
2023/12/16 09:30:47;;;;;;;5.90;5.30;;;22.40;40.90;;;;;;5110570;28;20040;-38
2023/12/16 09:33:14;;;;;;;5.05;4.53;;;22.50;41.00;;;;;;5115898;28;20031;-38
2023/12/16 09:35:40;;;;;;;5.38;4.88;;;22.50;40.90;;;;;;5110811;28;20023;-38
2023/12/16 09:38:06;;;;;;;5.05;4.57;;;22.60;41.00;;;;;;5119174;27;20019;-38
2023/12/16 09:40:32;;;;;;;6.88;4.68;;;22.60;41.10;;;;;;5114855;28;20032;-38
2023/12/16 09:43:08;;;;;;;6.47;4.40;;;22.60;41.10;;;;;;5112894;28;20035;-38
2023/12/16 09:45:35;;;;;;;4.93;4.40;;;22.60;41.20;;;;;;5113457;28;20023;-38
2023/12/16 09:48:01;;;;;;;6.53;3.80;;;22.70;41.20;;;;;;5119994;27;20043;-38
2023/12/16 09:50:28;;;;;;;4.32;3.92;;;22.70;41.40;;;;;;5111705;28;20039;-37
2023/12/16 09:52:54;;;;;;;4.32;3.90;;;22.80;41.50;;;;;;5111631;28;20036;-37
2023/12/16 09:55:20;;;;;;;3.78;3.28;;;22.80;41.60;;;;;;5111893;28;20032;-37
2023/12/16 09:57:47;;;;;;;5.20;3.60;;;22.80;41.60;;;;;;5108340;28;20054;-37
2023/12/16 10:00:14;;;;;;;4.25;3.47;;;22.90;41.60;;;;;;5113052;28;20020;-38
2023/12/16 10:02:40;;;;;;;;;;;22.90;41.70;;;;;;5112738;28;20028;-37
2023/12/16 10:05:06;;;;;;;3.55;3.10;;;22.90;41.80;;;;;;5108767;28;19908;-38
2023/12/16 10:07:32;;;;;;;2.80;2.53;;;23.00;41.70;;;;;;5099869;27;20019;-38
2023/12/16 10:09:58;;;;;;;3.30;3.00;;;23.00;41.80;;;;;;5113709;28;20031;-38
2023/12/16 10:12:33;;;;;;;3.25;2.95;;;23.00;42.00;;;;;;5109814;28;20103;-37
2023/12/16 10:14:59;;;;;;;2.63;2.42;;;23.10;42.50;;;;;;5095243;28;20051;-37
2023/12/16 10:17:26;;;;;;;3.35;2.80;;;23.10;42.00;;;;;;5108833;28;20024;-37
2023/12/16 10:19:52;;;;;;;3.13;2.75;;;23.10;42.00;;;;;;5113369;27;20027;-38
2023/12/16 10:22:19;;;;;;;2.60;2.40;;;23.20;42.10;;;;;;5110855;28;20036;-37
2023/12/16 10:24:45;;;;;;;2.70;2.20;;;23.20;42.00;;;;;;5111894;28;20095;-37
2023/12/16 10:27:11;;;;;;;2.90;2.43;;;23.20;42.00;;;;;;5114404;28;20091;-38
2023/12/16 10:29:40;;;;;;;2.30;2.10;;;23.30;42.00;;;;;;5107451;28;20271;-38
2023/12/16 10:32:13;;;;;;;3.78;2.35;;;23.30;42.10;;;;;;5112418;28;20040;-38
2023/12/16 10:34:39;;;;;;;2.35;2.15;;;23.30;42.00;;;;;;5107268;28;20036;-37
2023/12/16 10:37:08;;;;;;;2.60;2.30;;;23.40;42.00;;;;;;5113935;28;20603;-38
2023/12/16 10:39:35;;;;;;;2.40;2.20;;;23.40;42.10;;;;;;5112381;28;20571;-38
2023/12/16 10:42:01;;;;;;;2.50;2.27;;;23.40;42.30;;;;;;5122543;27;20020;-38
2023/12/16 10:44:28;;;;;;;2.70;2.50;;;23.30;42.40;;;;;;5122543;27;20321;-38
2023/12/16 10:46:54;;;;;;;2.70;2.40;;;23.20;42.50;;;;;;5112811;28;20092;-38
2023/12/16 10:49:31;;;;;;;2.92;2.63;;;23.20;42.60;;;;;;5120139;28;20039;-38
2023/12/16 10:52:06;;;;;;;2.45;2.25;;;23.10;42.60;;;;;;5117163;28;20044;-38
2023/12/16 10:54:44;;;;;;;3.00;2.30;;;23.00;42.60;;;;;;5108902;28;20035;-39
2023/12/16 10:57:31;;;;;;;2.53;2.33;;;22.90;42.70;;;;;;5105718;28;20051;-38
2023/12/16 11:00:22;;;;;;;2.92;2.67;;;22.80;42.70;;;;;;5113689;27;20035;-38
2023/12/16 11:03:04;;;;;;;2.78;2.55;;;22.70;42.80;;;;;;5092835;28;20020;-38
2023/12/16 11:05:36;;;;;;;2.50;2.28;;;22.60;42.80;;;;;;5109747;28;20031;-38
2023/12/16 11:08:02;;;;;;;2.58;2.20;;;22.50;42.80;;;;;;5115917;28;20024;-38
2023/12/16 11:10:32;;;;;;;4.63;2.70;;;22.40;42.80;;;;;;5089598;28;20205;-38
2023/12/16 11:13:04;;;;;;;2.90;2.50;;;22.40;42.90;;;;;;5120021;28;20480;-38
2023/12/16 11:15:34;;;;;;;3.33;2.00;;;22.30;42.90;;;;;;5096314;28;20047;-38
2023/12/16 11:18:16;;;;;;;3.50;2.50;;;22.20;42.90;;;;;;5110184;28;20064;-38
2023/12/16 11:20:52;;;;;;;2.40;2.20;;;22.20;42.80;;;;;;5102302;28;20023;-38
2023/12/16 11:23:19;;;;;;;2.25;1.90;;;22.20;42.40;;;;;;5094993;28;20032;-38
2023/12/16 11:25:49;;;;;;;2.33;2.13;;;22.30;42.40;;;;;;5119979;28;20047;-38
2023/12/16 11:28:15;;;;;;;1.90;1.67;;;22.40;42.30;;;;;;5122549;28;20078;-38
2023/12/16 11:30:41;;;;;;;2.50;2.15;;;22.40;42.20;;;;;;5118759;28;20035;-37
2023/12/16 11:33:07;;;;;;;4.05;1.90;;;22.50;42.20;;;;;;5117730;28;20099;-36
2023/12/16 11:35:39;;;;;;;2.53;1.60;;;22.50;42.20;;;;;;5117143;28;20020;-38
2023/12/16 11:38:09;;;;;;;4.18;1.77;;;22.50;42.20;;;;;;5113092;28;20488;-37
2023/12/16 11:40:42;;;;;;;3.90;1.90;;;22.60;42.30;;;;;;5119200;28;20067;-37
2023/12/16 11:43:09;;;;;;;3.85;3.28;;;22.70;42.30;;;;;;5108336;28;20035;-36
2023/12/16 11:45:43;;;;;;;4.32;3.78;;;22.50;42.40;;;;;;5108674;28;20032;-36
2023/12/16 11:48:10;;;;;;;2.95;2.72;;;22.50;42.40;;;;;;5119954;27;20051;-37
2023/12/16 11:50:39;;;;;;;2.83;2.55;;;22.40;42.30;;;;;;5116824;27;20168;-37
2023/12/16 11:53:09;;;;;;;3.38;3.08;;;22.30;42.40;;;;;;5123786;28;20439;-37
2023/12/16 11:55:35;;;;;;;3.10;2.80;;;22.20;42.50;;;;;;5119096;28;20065;-37
2023/12/16 11:58:02;;;;;;;3.80;2.58;;;22.20;42.70;;;;;;5111730;28;20027;-38
2023/12/16 12:00:29;;;;;;;4.53;2.90;;;22.10;42.80;;;;;;5117883;28;20028;-37
2023/12/16 12:02:56;;;;;;;2.70;2.50;;;22.00;42.90;;;;;;5121753;28;20063;-38
2023/12/16 12:05:22;;;;;;;3.00;2.60;;;21.90;42.90;;;;;;5118658;27;20121;-38
2023/12/16 12:07:48;;;;;;;3.25;2.58;;;21.90;43.00;;;;;;5118715;28;20070;-38
2023/12/16 12:10:14;;;;;;;2.28;2.08;;;21.80;43.10;;;;;;5102607;28;20031;-38
2023/12/16 12:12:40;;;;;;;2.92;2.53;;;21.70;43.10;;;;;;5115767;28;20036;-48
2023/12/16 12:15:10;;;;;;;3.33;2.20;;;21.60;43.10;;;;;;5124798;27;20034;-38
2023/12/16 12:17:39;;;;;;;2.28;2.00;;;21.60;43.50;;;;;;5116666;27;20023;-37
2023/12/16 12:20:06;;;;;;;2.83;2.20;;;21.80;42.60;;;;;;5113602;28;20077;-38
2023/12/16 12:22:33;;;;;;;2.00;1.80;;;21.80;42.50;;;;;;5120297;27;20031;-38
2023/12/16 12:24:59;;;;;;;2.50;2.13;;;21.90;42.50;;;;;;5115458;28;20038;-38
2023/12/16 12:27:29;;;;;;;2.17;1.98;;;21.90;42.40;;;;;;5115387;28;20037;-38
2023/12/16 12:29:56;;;;;;;2.22;2.00;;;22.00;42.30;;;;;;5087302;28;20063;-38
2023/12/16 12:32:23;;;;;;;2.25;1.98;;;22.00;42.30;;;;;;5121698;28;20038;-38
2023/12/16 12:34:59;;;;;;;2.20;1.90;;;22.10;42.30;;;;;;5117502;28;20039;-37
2023/12/16 12:37:26;;;;;;;1.63;1.52;;;22.20;42.40;;;;;;5121860;28;20057;-37
2023/12/16 12:39:52;;;;;;;2.00;1.80;;;22.20;42.20;;;;;;5114954;28;20032;-37
2023/12/16 12:42:19;;;;;;;1.67;1.53;;;22.30;42.30;;;;;;5118694;28;20519;-38
2023/12/16 12:44:56;;;;;;;2.00;1.70;;;22.30;42.20;;;;;;5112773;27;20032;-38